Terminal Aerodrome Forecast
Issued by NWS

Home | Current Version | Previous Version | Text Only | Print | Product List | Glossary On
Versions: 1 2 3 4 5 6 7 8 9 10 11 12 13 14 15 16 17 18 19 20 21 22 23
000
FTUS46 KMTR 291100
TAFSFO
TAF
KSFO 291138Z 2912/3018 29007KT P6SM SCT007 BKN010
     FM291800 29005KT P6SM SCT010 BKN200
     FM292000 29020KT P6SM SCT200
     FM300600 29010KT P6SM FEW008 SCT200
     FM301000 29007KT P6SM BKN010=

USA.gov is the U.S. government's official web portal to all federal, state and local government web resources and services.